Time;durP1;ratioP1;P1;durP2;ratioP2;P2;SDS_P1;SDS_P2;PMS_P1;PMS_P2;Temp;Humidity;BMP_temperature;BMP_pressure;BME280_temperature;BME280_humidity;BME280_pressure;Samples;Min_cycle;Max_cycle;Signal;HPM_P1;HPM_P2
2021/12/30 00:00:44;;;;;;;;;;;8.00;99.90;;;;;;5033956;28;19968;-82
2021/12/30 00:03:10;;;;;;;;;;;8.00;99.90;;;;;;5005425;28;19925;-82
2021/12/30 00:05:35;;;;;;;;;;;8.00;99.90;;;;;;5014131;28;19928;-82
2021/12/30 00:08:01;;;;;;;;;;;8.00;99.90;;;;;;5028295;28;19922;-82
2021/12/30 00:10:26;;;;;;;;;;;7.90;99.90;;;;;;5022182;28;20440;-82
2021/12/30 00:12:53;;;;;;;;;;;7.90;99.90;;;;;;5026866;28;19921;-82
2021/12/30 00:15:19;;;;;;;;;;;7.90;99.90;;;;;;5033630;28;19921;-81
2021/12/30 00:17:44;;;;;;;;;;;7.90;99.90;;;;;;5005024;28;20000;-82
2021/12/30 00:20:10;;;;;;;;;;;7.90;99.90;;;;;;4997479;28;19921;-82
2021/12/30 00:22:37;;;;;;;;;;;7.90;99.90;;;;;;5013364;28;20334;-82
2021/12/30 00:25:03;;;;;;;;;;;7.90;99.90;;;;;;5017407;28;20362;-82
2021/12/30 00:27:29;;;;;;;;;;;7.90;99.90;;;;;;5004686;28;20024;-82
2021/12/30 00:29:54;;;;;;;;;;;7.80;99.90;;;;;;5006381;28;19995;-81
2021/12/30 00:32:20;;;;;;;;;;;7.80;99.90;;;;;;5033321;28;20011;-82
2021/12/30 00:34:45;;;;;;;;;;;7.70;99.90;;;;;;5033044;28;19947;-82
2021/12/30 00:37:11;;;;;;;;;;;7.70;99.90;;;;;;5032545;28;19964;-82
2021/12/30 00:39:36;;;;;;;;;;;7.60;99.90;;;;;;5009438;28;19963;-82
2021/12/30 00:42:02;;;;;;;;;;;7.50;99.90;;;;;;5008422;28;19922;-82
2021/12/30 00:44:27;;;;;;;;;;;7.60;99.90;;;;;;5010911;28;19926;-82
2021/12/30 00:46:53;;;;;;;;;;;7.50;99.90;;;;;;5033115;28;19921;-82
2021/12/30 00:49:19;;;;;;;;;;;7.50;99.90;;;;;;5016540;28;19921;-82
2021/12/30 00:51:44;;;;;;;;;;;7.50;99.90;;;;;;5021445;28;19921;-82
2021/12/30 00:54:10;;;;;;;;;;;7.50;99.90;;;;;;5012978;28;20373;-82
2021/12/30 00:56:35;;;;;;;;;;;7.50;99.90;;;;;;5013218;28;20403;-82
2021/12/30 00:59:01;;;;;;;;;;;7.50;99.90;;;;;;4996719;28;19921;-82
2021/12/30 01:01:26;;;;;;;;;;;7.50;99.90;;;;;;5021277;28;20397;-82
2021/12/30 01:03:52;;;;;;;;;;;7.50;99.90;;;;;;5015598;28;19933;-82
2021/12/30 01:06:18;;;;;;;;;;;7.50;99.90;;;;;;5015492;28;20020;-82
2021/12/30 01:08:43;;;;;;;;;;;7.40;99.90;;;;;;5016470;28;20373;-82
2021/12/30 01:11:09;;;;;;;;;;;7.40;99.90;;;;;;5032718;28;19921;-82
2021/12/30 01:13:39;;;;;;;;;;;7.40;99.90;;;;;;5015828;28;19921;-82
2021/12/30 01:16:15;;;;;;;;;;;7.30;99.90;;;;;;5002161;28;20304;-82
2021/12/30 01:18:56;;;;;;;;;;;7.30;99.90;;;;;;4996739;28;20261;-82
2021/12/30 01:21:23;;;;;;;;;;;7.30;99.90;;;;;;5013293;28;19991;-82
2021/12/30 01:23:48;;;;;;;;;;;7.30;99.90;;;;;;5012323;28;19936;-82
2021/12/30 01:26:14;;;;;;;;;;;7.30;99.90;;;;;;5013283;28;20016;-82
2021/12/30 01:28:40;;;;;;;;;;;7.20;99.90;;;;;;4996152;28;19964;-82
2021/12/30 01:31:05;;;;;;;;;;;7.20;99.90;;;;;;4999630;28;19932;-82
2021/12/30 01:33:31;;;;;;;;;;;7.20;99.90;;;;;;5015632;28;19921;-82
2021/12/30 01:35:56;;;;;;;;;;;7.30;99.90;;;;;;5015380;28;20071;-82
2021/12/30 01:38:22;;;;;;;;;;;7.30;99.90;;;;;;5012155;28;19922;-82
2021/12/30 01:40:48;;;;;;;;;;;7.30;99.90;;;;;;5012117;28;19921;-82
2021/12/30 01:43:14;;;;;;;;;;;7.50;99.90;;;;;;5012282;28;20013;-82
2021/12/30 01:45:41;;;;;;;;;;;7.50;99.90;;;;;;4995918;28;19925;-82
2021/12/30 01:48:06;;;;;;;;;;;7.70;99.90;;;;;;4995940;28;19925;-82
2021/12/30 01:50:32;;;;;;;;;;;7.70;99.90;;;;;;5015413;28;19929;-82
2021/12/30 01:52:58;;;;;;;;;;;7.90;99.90;;;;;;5031623;28;19927;-82
2021/12/30 01:55:24;;;;;;;;;;;7.90;99.90;;;;;;5015356;28;20447;-82
2021/12/30 01:57:50;;;;;;;;;;;8.00;99.90;;;;;;5014523;28;19921;-82
2021/12/30 02:00:18;;;;;;;;;;;8.00;99.90;;;;;;5015067;28;21242;-82
2021/12/30 02:02:44;;;;;;;;;;;8.10;99.90;;;;;;5026443;28;20254;-82
2021/12/30 02:05:10;;;;;;;;;;;8.10;99.90;;;;;;4995600;28;19967;-81
2021/12/30 02:07:35;;;;;;;;;;;8.10;99.90;;;;;;5011124;28;19956;-82
2021/12/30 02:10:02;;;;;;;;;;;8.10;99.90;;;;;;5015117;28;19983;-82
2021/12/30 02:12:30;;;;;;;;;;;8.20;99.90;;;;;;5015126;28;19968;-82
2021/12/30 02:14:56;;;;;;;;;;;8.20;99.90;;;;;;5022377;28;19921;-82
2021/12/30 02:17:21;;;;;;;;;;;8.30;99.90;;;;;;5011908;28;20009;-82
2021/12/30 02:19:47;;;;;;;;;;;8.30;99.90;;;;;;4996366;28;19921;-82
2021/12/30 02:22:12;;;;;;;;;;;8.30;99.90;;;;;;5014771;28;19928;-82
2021/12/30 02:24:49;;;;;;;;;;;8.30;99.90;;;;;;5014683;28;19925;-82
2021/12/30 02:27:15;;;;;;;;;;;8.30;99.90;;;;;;5023413;28;19969;-82
2021/12/30 02:29:40;;;;;;;;;;;8.40;99.90;;;;;;4996393;28;19921;-81
2021/12/30 02:32:06;;;;;;;;;;;8.40;99.90;;;;;;5008411;28;20008;-82
2021/12/30 02:34:32;;;;;;;;;;;8.50;99.90;;;;;;5014145;28;20035;-82
2021/12/30 02:36:57;;;;;;;;;;;8.50;99.90;;;;;;5013984;28;20016;-82
2021/12/30 02:39:23;;;;;;;;;;;8.60;99.90;;;;;;4997214;28;20458;-82
2021/12/30 02:41:49;;;;;;;;;;;8.60;99.90;;;;;;5000043;28;20439;-82
2021/12/30 02:44:15;;;;;;;;;;;8.70;99.90;;;;;;5014148;28;19948;-82
2021/12/30 02:46:41;;;;;;;;;;;8.70;99.90;;;;;;4996978;28;19922;-81
2021/12/30 02:49:07;;;;;;;;;;;8.80;99.90;;;;;;4994909;28;20402;-82
2021/12/30 02:51:32;;;;;;;;;;;8.80;99.90;;;;;;5018969;28;20390;-83
2021/12/30 02:53:58;;;;;;;;;;;8.80;99.90;;;;;;5014438;28;19975;-79
2021/12/30 02:56:24;;;;;;;;;;;8.90;99.90;;;;;;5030948;28;19925;-79
2021/12/30 02:58:50;;;;;;;;;;;8.90;99.90;;;;;;5013128;28;20000;-79
2021/12/30 03:01:19;;;;;;;;;;;8.90;99.90;;;;;;5012956;28;20016;-79
2021/12/30 03:03:44;;;;;;;;;;;8.90;99.90;;;;;;5013920;28;19929;-78
2021/12/30 03:06:11;;;;;;;;;;;9.00;99.90;;;;;;5014463;28;19927;-79
2021/12/30 03:08:37;;;;;;;;;;;9.00;99.90;;;;;;5014527;28;19964;-79
2021/12/30 03:11:02;;;;;;;;;;;9.10;99.90;;;;;;5030752;28;19964;-79
2021/12/30 03:13:31;;;;;;;;;;;9.10;99.90;;;;;;5013319;28;20405;-79
2021/12/30 03:15:58;;;;;;;;;;;9.10;99.90;;;;;;5029229;28;19957;-79
2021/12/30 03:18:23;;;;;;;;;;;9.10;99.90;;;;;;5014235;28;20008;-79
2021/12/30 03:20:49;;;;;;;;;;;9.10;99.90;;;;;;5013601;28;20008;-79
2021/12/30 03:23:14;;;;;;;;;;;9.20;99.90;;;;;;5010586;28;19925;-79
2021/12/30 03:25:40;;;;;;;;;;;9.20;99.90;;;;;;4994496;28;19929;-79
2021/12/30 03:28:05;;;;;;;;;;;9.20;99.90;;;;;;5012123;28;19921;-79
2021/12/30 03:30:31;;;;;;;;;;;9.20;99.90;;;;;;5026143;28;20008;-79
2021/12/30 03:32:56;;;;;;;;;;;9.30;99.90;;;;;;5013951;28;19921;-79
2021/12/30 03:35:22;;;;;;;;;;;9.20;99.90;;;;;;5030592;28;19928;-79
2021/12/30 03:37:47;;;;;;;;;;;9.20;99.90;;;;;;5022424;28;19993;-79
2021/12/30 03:40:15;;;;;;;;;;;9.30;99.90;;;;;;4994446;28;20008;-79
2021/12/30 03:42:41;;;;;;;;;;;9.30;99.90;;;;;;5026005;28;19928;-79
2021/12/30 03:45:08;;;;;;;;;;;9.30;99.90;;;;;;5014026;28;19922;-79
2021/12/30 03:47:37;;;;;;;;;;;9.30;99.90;;;;;;5014253;28;19921;-79
2021/12/30 03:50:02;;;;;;;;;;;9.40;99.90;;;;;;5030310;28;19921;-79
2021/12/30 03:52:30;;;;;;;;;;;9.40;99.90;;;;;;5026920;28;20274;-79
2021/12/30 03:54:56;;;;;;;;;;;9.40;99.90;;;;;;4994255;28;19961;-79
2021/12/30 03:57:22;;;;;;;;;;;9.50;99.90;;;;;;5013939;28;19968;-79
2021/12/30 03:59:47;;;;;;;;;;;9.50;99.90;;;;;;5030449;28;20381;-79
2021/12/30 04:02:13;;;;;;;;;;;9.60;99.90;;;;;;5030368;28;20102;-79
2021/12/30 04:04:39;;;;;;;;;;;9.60;99.90;;;;;;5030156;28;20011;-79
2021/12/30 04:07:04;;;;;;;;;;;9.60;99.90;;;;;;5013748;28;19937;-78
2021/12/30 04:09:30;;;;;;;;;;;9.70;99.90;;;;;;5009321;28;19925;-79
2021/12/30 04:11:55;;;;;;;;;;;9.70;99.90;;;;;;5013051;28;20320;-79
2021/12/30 04:14:21;;;;;;;;;;;9.70;99.90;;;;;;4997471;28;20432;-79
2021/12/30 04:16:46;;;;;;;;;;;9.70;99.90;;;;;;5013956;28;19921;-79
2021/12/30 04:19:12;;;;;;;;;;;9.80;99.90;;;;;;4999416;28;20373;-79
2021/12/30 04:21:37;;;;;;;;;;;9.80;99.90;;;;;;4997616;28;20005;-79
2021/12/30 04:24:03;;;;;;;;;;;9.80;99.90;;;;;;5004606;28;19929;-79
2021/12/30 04:26:28;;;;;;;;;;;9.80;99.90;;;;;;5033354;28;19961;-79
2021/12/30 04:28:54;;;;;;;;;;;9.90;99.90;;;;;;5017127;28;19925;-79
2021/12/30 04:31:19;;;;;;;;;;;9.90;99.90;;;;;;5000056;28;19965;-79
2021/12/30 04:33:45;;;;;;;;;;;9.90;99.90;;;;;;5014200;28;19921;-82
2021/12/30 04:36:11;;;;;;;;;;;10.00;99.90;;;;;;5013720;28;20401;-82
2021/12/30 04:38:37;;;;;;;;;;;10.00;99.90;;;;;;5013976;28;19995;-82
2021/12/30 04:41:03;;;;;;;;;;;10.00;99.90;;;;;;5013751;28;19922;-81
2021/12/30 04:43:29;;;;;;;;;;;10.10;99.90;;;;;;5032594;28;20004;-82
2021/12/30 04:45:54;;;;;;;;;;;10.20;99.90;;;;;;5017155;28;19975;-82
2021/12/30 04:48:20;;;;;;;;;;;10.20;99.90;;;;;;5032388;28;19921;-81
2021/12/30 04:50:46;;;;;;;;;;;10.30;99.90;;;;;;5033048;28;19928;-80
2021/12/30 04:53:12;;;;;;;;;;;10.30;99.90;;;;;;5016586;28;20432;-80
2021/12/30 04:55:38;;;;;;;;;;;10.30;99.90;;;;;;5013401;28;19926;-82
2021/12/30 04:58:04;;;;;;;;;;;10.30;99.90;;;;;;5013160;28;19988;-82
2021/12/30 05:00:31;;;;;;;;;;;10.40;99.90;;;;;;4996833;28;20301;-81
2021/12/30 05:03:08;;;;;;;;;;;10.40;99.90;;;;;;4996059;28;19976;-82
2021/12/30 05:05:36;;;;;;;;;;;10.40;99.90;;;;;;4996735;28;20386;-81
2021/12/30 05:08:02;;;;;;;;;;;10.40;99.90;;;;;;5000655;28;20301;-81
2021/12/30 05:10:27;;;;;;;;;;;10.40;99.90;;;;;;5031598;28;20377;-82
2021/12/30 05:12:53;;;;;;;;;;;10.50;99.90;;;;;;5012550;28;19921;-81
2021/12/30 05:15:18;;;;;;;;;;;10.50;99.90;;;;;;4997017;28;20289;-83
2021/12/30 05:17:44;;;;;;;;;;;10.60;99.90;;;;;;5012796;28;19925;-81
2021/12/30 05:20:12;;;;;;;;;;;10.60;99.90;;;;;;4996694;28;20279;-82
2021/12/30 05:22:38;;;;;;;;;;;10.60;99.90;;;;;;5030226;28;20309;-82
2021/12/30 05:25:03;;;;;;;;;;;10.70;99.90;;;;;;5025559;28;19929;-82
2021/12/30 05:27:29;;;;;;;;;;;10.70;99.90;;;;;;5012483;28;19929;-81
2021/12/30 05:29:54;;;;;;;;;;;10.70;99.90;;;;;;5001402;28;19921;-82
2021/12/30 05:32:20;;;;;;;;;;;10.70;99.90;;;;;;5015653;28;19936;-82
2021/12/30 05:34:45;;;;;;;;;;;10.80;99.90;;;;;;5028649;28;19928;-82
2021/12/30 05:37:10;;;;;;;;;;;10.90;99.90;;;;;;4996554;28;19921;-81
2021/12/30 05:39:40;;;;;;;;;;;10.80;99.90;;;;;;5012607;28;19922;-81
2021/12/30 05:42:06;;;;;;;;;;;10.90;99.90;;;;;;4996062;28;19921;-81
2021/12/30 05:44:31;;;;;;;;;;;10.90;99.90;;;;;;5001196;28;19976;-81
2021/12/30 05:46:57;;;;;;;;;;;10.90;99.90;;;;;;5012390;28;19921;-81
2021/12/30 05:49:22;;;;;;;;;;;10.90;99.90;;;;;;5012441;28;20278;-80
2021/12/30 05:51:48;;;;;;;;;;;10.90;99.90;;;;;;4995997;28;19961;-81
2021/12/30 05:54:13;;;;;;;;;;;11.00;99.90;;;;;;5012080;28;19934;-81
2021/12/30 05:56:39;;;;;;;;;;;11.00;99.90;;;;;;5007942;28;19921;-81
2021/12/30 05:59:04;;;;;;;;;;;11.00;99.90;;;;;;5020123;28;20397;-80
2021/12/30 06:01:29;;;;;;;;;;;11.00;99.90;;;;;;5005399;28;19921;-82
2021/12/30 06:03:55;;;;;;;;;;;11.00;99.90;;;;;;5014743;28;20148;-83
2021/12/30 06:06:20;;;;;;;;;;;11.10;99.90;;;;;;5013809;28;19944;-82
2021/12/30 06:08:46;;;;;;;;;;;11.10;99.90;;;;;;5023117;28;19968;-81
2021/12/30 06:11:11;;;;;;;;;;;11.10;99.90;;;;;;5005784;28;19929;-81
2021/12/30 06:13:37;;;;;;;;;;;11.00;99.90;;;;;;5013844;28;19921;-80
2021/12/30 06:16:02;;;;;;;;;;;11.10;99.90;;;;;;5031482;28;20031;-81
2021/12/30 06:18:28;;;;;;;;;;;11.10;99.90;;;;;;5029327;28;19975;-80
2021/12/30 06:20:53;;;;;;;;;;;11.10;99.90;;;;;;5011751;28;19934;-80
2021/12/30 06:23:19;;;;;;;;;;;11.10;99.90;;;;;;5011446;28;19979;-80
2021/12/30 06:25:44;;;;;;;;;;;11.10;99.90;;;;;;4996967;28;19921;-80
2021/12/30 06:28:10;;;;;;;;;;;11.10;99.90;;;;;;5025636;28;19928;-82
2021/12/30 06:30:35;;;;;;;;;;;11.10;99.90;;;;;;5014943;28;19925;-82
2021/12/30 06:33:01;;;;;;;;;;;11.10;99.90;;;;;;5012351;28;20381;-81
2021/12/30 06:35:31;;;;;;;;;;;11.20;99.90;;;;;;5012378;28;19925;-81
2021/12/30 06:37:57;;;;;;;;;;;11.10;99.90;;;;;;5003529;28;19960;-81
2021/12/30 06:40:23;;;;;;;;;;;11.10;99.90;;;;;;5000318;28;20420;-81
2021/12/30 06:42:48;;;;;;;;;;;11.10;99.90;;;;;;4994447;28;19925;-81
2021/12/30 06:45:14;;;;;;;;;;;11.20;99.90;;;;;;5011564;28;20377;-81
2021/12/30 06:47:40;;;;;;;;;;;11.20;99.90;;;;;;5011449;28;20451;-81
2021/12/30 06:50:07;;;;;;;;;;;11.20;99.90;;;;;;5022613;28;19925;-82
2021/12/30 06:52:33;;;;;;;;;;;11.20;99.90;;;;;;5030862;28;20008;-81
2021/12/30 06:54:58;;;;;;;;;;;11.20;99.90;;;;;;5012644;28;20026;-81
2021/12/30 06:57:24;;;;;;;;;;;11.20;99.90;;;;;;4994909;28;19926;-80
2021/12/30 06:59:49;;;;;;;;;;;11.20;99.90;;;;;;5011318;28;20297;-82
2021/12/30 07:02:15;;;;;;;;;;;11.20;99.90;;;;;;5011252;28;19921;-81
2021/12/30 07:04:40;;;;;;;;;;;11.20;99.90;;;;;;5014132;28;19968;-82
2021/12/30 07:07:06;;;;;;;;;;;11.20;99.90;;;;;;5026826;28;19922;-81
2021/12/30 07:09:31;;;;;;;;;;;11.30;99.90;;;;;;5007249;28;19921;-82
2021/12/30 07:11:57;;;;;;;;;;;11.30;99.90;;;;;;5014404;28;19921;-82
2021/12/30 07:14:23;;;;;;;;;;;11.30;99.90;;;;;;5014039;28;19971;-82
2021/12/30 07:16:49;;;;;;;;;;;11.30;99.90;;;;;;5014329;28;20382;-82
2021/12/30 07:19:15;;;;;;;;;;;11.30;99.90;;;;;;5021891;28;19928;-82
2021/12/30 07:21:40;;;;;;;;;;;11.30;99.90;;;;;;4999223;28;19921;-83
2021/12/30 07:24:06;;;;;;;;;;;11.30;99.90;;;;;;5003080;28;20020;-82
2021/12/30 07:26:32;;;;;;;;;;;11.30;99.90;;;;;;5023966;28;19921;-81
2021/12/30 07:28:57;;;;;;;;;;;11.30;99.90;;;;;;4994791;28;19965;-81
2021/12/30 07:31:23;;;;;;;;;;;11.30;99.90;;;;;;5006142;28;20219;-82
2021/12/30 07:33:48;;;;;;;;;;;11.30;99.90;;;;;;4996535;28;19921;-82
2021/12/30 07:36:14;;;;;;;;;;;11.30;99.90;;;;;;5010815;28;19932;-81
2021/12/30 07:38:39;;;;;;;;;;;11.30;99.90;;;;;;5010998;28;19968;-81
2021/12/30 07:41:05;;;;;;;;;;;11.30;99.90;;;;;;5011046;28;19971;-81
2021/12/30 07:43:46;;;;;;;;;;;;;;;;;;;;;
2021/12/30 07:46:39;;;;;;;;;;;11.30;99.90;;;;;;5015126;28;19925;-79
2021/12/30 07:49:32;;;;;;;;;;;11.30;99.90;;;;;;4987724;28;19921;-79
2021/12/30 07:52:10;;;;;;;;;;;11.30;99.90;;;;;;5031704;28;19929;-79
2021/12/30 07:54:51;;;;;;;;;;;11.30;99.90;;;;;;5032429;28;19976;-79
2021/12/30 07:57:38;;;;;;;;;;;11.40;99.90;;;;;;5031871;28;19972;-79
2021/12/30 08:00:14;;;;;;;;;;;11.40;99.90;;;;;;5032454;28;19968;-79
2021/12/30 08:02:56;;;;;;;;;;;11.40;99.90;;;;;;5033112;28;20278;-79
2021/12/30 08:05:27;;;;;;;;;;;11.40;99.90;;;;;;5032300;28;19932;-79
2021/12/30 08:08:07;;;;;;;;;;;11.40;99.90;;;;;;5027607;28;20363;-79
2021/12/30 08:10:45;;;;;;;;;;;11.40;99.90;;;;;;5030708;28;20266;-79
2021/12/30 08:13:31;;;;;;;;;;;11.40;99.90;;;;;;5015239;28;19921;-79
2021/12/30 08:16:13;;;;;;;;;;;11.50;99.90;;;;;;5032147;28;19922;-79
2021/12/30 08:18:43;;;;;;;;;;;11.50;99.90;;;;;;4998831;28;19944;-79
2021/12/30 08:21:13;;;;;;;;;;;11.40;99.90;;;;;;5031517;28;19928;-79
2021/12/30 08:23:44;;;;;;;;;;;11.50;99.90;;;;;;5031289;28;19972;-78
2021/12/30 08:26:16;;;;;;;;;;;11.50;99.90;;;;;;5032983;28;19926;-79
2021/12/30 08:29:00;;;;;;;;;;;11.50;99.90;;;;;;5014006;28;19922;-79
2021/12/30 08:31:26;;;;;;;;;;;11.60;99.90;;;;;;5032017;28;20297;-79
2021/12/30 08:33:55;;;;;;;;;;;11.60;99.90;;;;;;4998571;28;19922;-79
2021/12/30 08:36:25;;;;;;;;;;;11.60;99.90;;;;;;4999724;28;20020;-79
2021/12/30 08:38:53;;;;;;;;;;;11.60;99.90;;;;;;5016213;28;19976;-78
2021/12/30 08:41:19;;;;;;;;;;;11.60;99.90;;;;;;5031850;28;20459;-79
2021/12/30 08:43:47;;;;;;;;;;;11.70;99.90;;;;;;4982053;28;19922;-79
2021/12/30 08:46:19;;;;;;;;;;;11.70;99.90;;;;;;4998767;28;19926;-79
2021/12/30 08:48:44;;;;;;;;;;;11.70;99.90;;;;;;4983058;28;19922;-79
2021/12/30 08:51:10;;;;;;;;;;;11.70;99.90;;;;;;4998601;28;20344;-79
2021/12/30 08:53:41;;;;;;;;;;;11.80;99.90;;;;;;4999170;28;19921;-80
2021/12/30 08:56:17;;;;;;;;;;;11.80;99.90;;;;;;5030097;28;19922;-79
2021/12/30 08:58:43;;;;;;;;;;;11.80;99.90;;;;;;5031063;28;20032;-79
2021/12/30 09:01:11;;;;;;;;;;;11.70;99.90;;;;;;5031842;28;19968;-79
2021/12/30 09:03:38;;;;;;;;;;;11.80;99.90;;;;;;4997580;28;20020;-79
2021/12/30 09:06:06;;;;;;;;;;;11.80;99.90;;;;;;4997370;28;19932;-79
2021/12/30 09:08:40;;;;;;;;;;;11.80;99.90;;;;;;5030201;28;19929;-78
2021/12/30 09:11:07;;;;;;;;;;;11.80;99.90;;;;;;5030391;28;20016;-78
2021/12/30 09:13:36;;;;;;;;;;;11.80;99.90;;;;;;5029486;28;19921;-79
2021/12/30 09:16:08;;;;;;;;;;;11.80;99.90;;;;;;4998452;28;19948;-78
2021/12/30 09:18:37;;;;;;;;;;;11.80;99.90;;;;;;4998755;28;19926;-79
2021/12/30 09:21:18;;;;;;;;;;;11.80;99.90;;;;;;4997612;28;19965;-79
2021/12/30 09:23:51;;;;;;;;;;;11.80;99.90;;;;;;5027646;28;20020;-79
2021/12/30 09:26:17;;;;;;;;;;;11.80;99.90;;;;;;5028154;28;20001;-78
2021/12/30 09:31:41;;;;;;;;;;;11.80;99.90;;;;;;5013644;28;19969;-78
2021/12/30 09:34:11;;;;;;;;;;;11.80;99.90;;;;;;5028121;28;20432;-79
2021/12/30 09:36:40;;;;;;;;;;;11.80;99.90;;;;;;4996004;28;19928;-78
2021/12/30 09:39:08;;;;;;;;;;;11.90;99.90;;;;;;5029331;28;20444;-79
2021/12/30 09:41:50;;;;;;;;;;;11.80;99.90;;;;;;5030338;28;20335;-79
2021/12/30 09:44:18;;;;;;;;;;;11.90;99.90;;;;;;5029155;28;19926;-78
2021/12/30 09:46:56;;;;;;;;;;;11.80;99.90;;;;;;5030236;28;19921;-79
2021/12/30 09:49:25;;;;;;;;;;;11.90;99.90;;;;;;5029256;28;20415;-78
2021/12/30 09:51:53;;;;;;;;;;;11.80;99.90;;;;;;4997755;28;20004;-79
2021/12/30 09:54:23;;;;;;;;;;;11.90;99.90;;;;;;5029927;28;20055;-79
2021/12/30 09:56:54;;;;;;;;;;;11.90;99.90;;;;;;4996942;28;19922;-79
2021/12/30 09:59:31;;;;;;;;;;;11.90;99.90;;;;;;5029225;28;19932;-78
2021/12/30 10:02:07;;;;;;;;;;;11.90;99.90;;;;;;5029982;28;19922;-79
2021/12/30 10:04:40;;;;;;;;;;;11.90;99.90;;;;;;5029311;28;20015;-79
2021/12/30 10:07:28;;;;;;;;;;;11.90;99.90;;;;;;5029774;28;19922;-79
2021/12/30 10:10:00;;;;;;;;;;;11.90;99.90;;;;;;5030562;28;19928;-79
2021/12/30 10:12:32;;;;;;;;;;;11.90;99.90;;;;;;4997642;28;19921;-79
2021/12/30 10:14:58;;;;;;;;;;;11.90;99.90;;;;;;5030690;28;19932;-78
2021/12/30 10:17:40;;;;;;;;;;;11.90;99.90;;;;;;4997834;28;19921;-79
2021/12/30 10:20:21;;;;;;;;;;;11.90;99.90;;;;;;4996766;28;20412;-78
2021/12/30 10:23:07;;;;;;;;;;;11.90;99.90;;;;;;5028426;28;19921;-78
2021/12/30 10:25:42;;;;;;;;;;;11.90;99.90;;;;;;5046100;28;19922;-78
2021/12/30 10:28:19;;;;;;;;;;;11.90;99.90;;;;;;5028123;28;19931;-78
2021/12/30 10:30:57;;;;;;;;;;;12.00;99.90;;;;;;4996201;28;19976;-79
2021/12/30 10:33:27;;;;;;;;;;;12.00;99.90;;;;;;5028509;28;20007;-78
2021/12/30 10:35:59;;;;;;;;;;;12.00;99.90;;;;;;5027627;28;19921;-79
2021/12/30 10:38:43;;;;;;;;;;;12.00;99.90;;;;;;5027311;28;19969;-79
2021/12/30 10:41:14;;;;;;;;;;;11.90;99.90;;;;;;5028696;28;19987;-78
2021/12/30 10:46:20;;;;;;;;;;;12.00;99.90;;;;;;5045402;28;19921;-79
2021/12/30 10:48:46;;;;;;;;;;;12.00;99.90;;;;;;5028350;28;19922;-78
2021/12/30 10:51:17;;;;;;;;;;;12.00;99.90;;;;;;4995112;28;20348;-79
2021/12/30 10:53:53;;;;;;;;;;;12.00;99.90;;;;;;5026860;28;20373;-78
2021/12/30 10:56:31;;;;;;;;;;;11.90;99.90;;;;;;5027900;28;19933;-79
2021/12/30 10:59:08;;;;;;;;;;;11.90;99.90;;;;;;4995216;28;19953;-79
2021/12/30 11:01:46;;;;;;;;;;;11.90;99.90;;;;;;4994053;28;20448;-78
2021/12/30 11:04:15;;;;;;;;;;;11.90;99.90;;;;;;5027508;28;19925;-78
2021/12/30 11:06:46;;;;;;;;;;;11.90;99.90;;;;;;5027376;28;19928;-78
2021/12/30 11:09:20;;;;;;;;;;;11.90;99.90;;;;;;5018974;28;19964;-78
2021/12/30 11:11:50;;;;;;;;;;;11.80;99.90;;;;;;5027509;28;20362;-78
2021/12/30 11:14:18;;;;;;;;;;;11.90;99.90;;;;;;5026779;28;20420;-78
2021/12/30 11:16:52;;;;;;;;;;;11.80;99.90;;;;;;5027395;28;19952;-79
2021/12/30 11:19:23;;;;;;;;;;;11.90;99.90;;;;;;5027680;28;19975;-78
2021/12/30 11:21:51;;;;;;;;;;;11.90;99.90;;;;;;4997969;28;19921;-77
2021/12/30 11:24:18;;;;;;;;;;;11.90;99.90;;;;;;5031062;28;19932;-78
2021/12/30 11:26:50;;;;;;;;;;;11.90;99.90;;;;;;5031343;28;19921;-78
2021/12/30 11:29:16;;;;;;;;;;;11.90;99.90;;;;;;5031458;28;19954;-78
2021/12/30 11:31:45;;;;;;;;;;;11.90;99.90;;;;;;5030670;28;19925;-78
2021/12/30 11:34:11;;;;;;;;;;;11.90;99.90;;;;;;4997954;28;19925;-78
2021/12/30 11:36:43;;;;;;;;;;;11.90;99.90;;;;;;5031193;28;19922;-78
2021/12/30 11:39:15;;;;;;;;;;;11.90;99.90;;;;;;4998640;28;19921;-78
2021/12/30 11:41:51;;;;;;;;;;;11.90;99.90;;;;;;5031213;28;19921;-78
2021/12/30 11:44:38;;;;;;;;;;;11.90;99.90;;;;;;5030466;28;19984;-79
2021/12/30 11:47:05;;;;;;;;;;;11.90;99.90;;;;;;4998251;28;19960;-78
2021/12/30 11:50:01;;;;;;;;;;;11.90;99.90;;;;;;5031605;28;20327;-78
2021/12/30 11:52:51;;;;;;;;;;;11.90;99.90;;;;;;5032243;28;19929;-78
2021/12/30 11:55:36;;;;;;;;;;;11.90;99.90;;;;;;5031914;28;20301;-78
2021/12/30 11:58:24;;;;;;;;;;;11.90;99.90;;;;;;4998902;28;20392;-78
2021/12/30 12:00:57;;;;;;;;;;;11.80;99.90;;;;;;4997778;28;19962;-78
2021/12/30 12:03:38;;;;;;;;;;;11.90;99.90;;;;;;4998689;28;20300;-78
2021/12/30 12:06:28;;;;;;;;;;;11.80;99.90;;;;;;5031287;28;19921;-78
2021/12/30 12:09:16;;;;;;;;;;;11.80;99.90;;;;;;4997734;28;19925;-77
2021/12/30 12:11:46;;;;;;;;;;;11.80;99.90;;;;;;5030468;28;20480;-77
2021/12/30 12:14:12;;;;;;;;;;;11.80;99.90;;;;;;5030326;28;20247;-77
2021/12/30 12:17:00;;;;;;;;;;;11.90;99.90;;;;;;4997577;28;19968;-77
2021/12/30 12:19:54;;;;;;;;;;;11.90;99.90;;;;;;5001982;28;20384;-79
2021/12/30 12:22:28;;;;;;;;;;;11.90;99.90;;;;;;5051333;28;19922;-79
2021/12/30 12:25:09;;;;;;;;;;;11.90;99.90;;;;;;5035388;28;19929;-80
2021/12/30 12:27:37;;;;;;;;;;;11.90;99.90;;;;;;5003918;28;19968;-80
2021/12/30 12:30:08;;;;;;;;;;;11.80;99.90;;;;;;5036414;28;20382;-79
2021/12/30 12:32:39;;;;;;;;;;;11.90;99.90;;;;;;5032758;28;19921;-78
2021/12/30 12:35:16;;;;;;;;;;;11.90;99.90;;;;;;5028886;28;19929;-77
2021/12/30 12:37:48;;;;;;;;;;;11.90;99.90;;;;;;4997506;28;20297;-78
2021/12/30 12:40:31;;;;;;;;;;;11.90;99.90;;;;;;4997613;28;20273;-78
2021/12/30 12:43:20;;;;;;;;;;;11.90;99.90;;;;;;5028969;28;19929;-78
2021/12/30 12:45:49;;;;;;;;;;;11.90;99.90;;;;;;5029085;28;19921;-78
2021/12/30 12:48:27;;;;;;;;;;;11.90;99.90;;;;;;4996766;28;19921;-78
2021/12/30 12:51:11;;;;;;;;;;;11.90;99.90;;;;;;5029808;28;19921;-77
2021/12/30 12:53:46;;;;;;;;;;;11.90;99.90;;;;;;4996401;28;19993;-78
2021/12/30 12:56:29;;;;;;;;;;;11.90;99.90;;;;;;5045573;28;20300;-78
2021/12/30 12:59:00;;;;;;;;;;;11.90;99.90;;;;;;5029524;28;19922;-78
2021/12/30 13:01:38;;;;;;;;;;;11.90;99.90;;;;;;5026464;28;19988;-78
2021/12/30 13:04:10;;;;;;;;;;;11.90;99.90;;;;;;5029040;28;19926;-78
2021/12/30 13:07:08;;;;;;;;;;;11.90;99.90;;;;;;5029460;28;19921;-79
2021/12/30 13:09:54;;;;;;;;;;;11.90;99.90;;;;;;4964345;28;19922;-78
2021/12/30 13:12:38;;;;;;;;;;;11.90;99.90;;;;;;5029288;28;19922;-78
2021/12/30 13:15:18;;;;;;;;;;;11.90;99.90;;;;;;5028508;28;19975;-79
2021/12/30 13:17:46;;;;;;;;;;;11.90;99.90;;;;;;5031129;28;19921;-79
2021/12/30 13:20:14;;;;;;;;;;;11.90;99.90;;;;;;4999814;28;19925;-79
2021/12/30 13:22:45;;;;;;;;;;;11.90;99.90;;;;;;4998309;28;19928;-79
2021/12/30 13:25:20;;;;;;;;;;;11.90;99.90;;;;;;4999582;28;19925;-79
2021/12/30 13:27:58;;;;;;;;;;;11.90;99.90;;;;;;4996157;28;20393;-78
2021/12/30 13:30:33;;;;;;;;;;;11.90;99.90;;;;;;4997109;28;19928;-79
2021/12/30 13:33:33;;;;;;;;;;;11.90;99.90;;;;;;4959442;28;19966;-79
2021/12/30 13:36:20;;;;;;;;;;;11.90;99.90;;;;;;4997276;28;19921;-78
2021/12/30 13:39:18;;;;;;;;;;;11.90;99.90;;;;;;5028635;28;19921;-79
2021/12/30 13:42:03;;;;;;;;;;;;;;;;;;;;;
2021/12/30 13:44:46;;;;;;;;;;;11.90;99.90;;;;;;5028488;23;20023;-83
2021/12/30 13:47:39;;;;;;;;;;;11.90;99.90;;;;;;5029136;28;20025;-82
2021/12/30 13:50:13;;;;;;;;;;;11.80;99.90;;;;;;5027161;28;19928;-83
2021/12/30 13:52:39;;;;;;;;;;;11.80;99.90;;;;;;5012131;28;19929;-82
2021/12/30 13:55:14;;;;;;;;;;;11.80;99.90;;;;;;5028914;28;19925;-84
2021/12/30 13:57:41;;;;;;;;;;;11.80;99.90;;;;;;4995777;28;19921;-83
2021/12/30 14:00:08;;;;;;;;;;;11.80;99.90;;;;;;5028907;28;20343;-82
2021/12/30 14:02:33;;;;;;;;;;;11.80;99.90;;;;;;5028367;28;19975;-82
2021/12/30 14:05:17;;;;;;;;;;;11.80;99.90;;;;;;5011844;28;19921;-84
2021/12/30 14:07:48;;;;;;;;;;;11.80;99.90;;;;;;5028861;28;19932;-83
2021/12/30 14:10:14;;;;;;;;;;;11.80;99.90;;;;;;5045097;28;19964;-83
2021/12/30 14:12:55;;;;;;;;;;;11.80;99.90;;;;;;5028204;28;20027;-83
2021/12/30 14:15:21;;;;;;;;;;;11.80;99.90;;;;;;5011947;28;19921;-83
2021/12/30 14:17:55;;;;;;;;;;;11.80;99.90;;;;;;5011827;28;20012;-82
2021/12/30 14:20:21;;;;;;;;;;;11.80;99.90;;;;;;5028309;28;19925;-83
2021/12/30 14:22:46;;;;;;;;;;;11.80;99.90;;;;;;5028187;28;20280;-82
2021/12/30 14:25:25;;;;;;;;;;;11.90;99.90;;;;;;4995230;28;19921;-83
2021/12/30 14:27:51;;;;;;;;;;;11.80;99.90;;;;;;4995408;28;19929;-82
2021/12/30 14:30:16;;;;;;;;;;;11.80;99.90;;;;;;4995188;28;19921;-83
2021/12/30 14:32:42;;;;;;;;;;;11.80;99.90;;;;;;5011349;28;20389;-83
2021/12/30 14:35:09;;;;;;;;;;;11.80;99.90;;;;;;5011849;28;19926;-82
2021/12/30 14:37:37;;;;;;;;;;;11.80;99.90;;;;;;4995300;28;19922;-84
2021/12/30 14:40:03;;;;;;;;;;;11.80;99.90;;;;;;5028136;28;19922;-83
2021/12/30 14:42:32;;;;;;;;;;;11.80;99.90;;;;;;5027728;28;20051;-83
2021/12/30 14:45:18;;;;;;;;;;;11.90;99.90;;;;;;4994794;28;19926;-82